Terminal Aerodrome Forecast
Issued by NWS Pueblo, CO

Home | Current Version | Previous Version | Text Only | Print | Product List | Glossary On
Versions: 1 2 3 4 5 6 7 8 9 10 11 12 13 14 15 16
000
FTUS45 KPUB 241740
TAFALS
TAF
KALS 241740Z 2418/2518 VRB06KT P6SM FEW150
     FM241900 24012G22KT P6SM FEW100 SCT150
     FM250400 VRB06KT P6SM SCT150=

USA.gov is the U.S. government's official web portal to all federal, state and local government web resources and services.